Time;durP1;ratioP1;P1;durP2;ratioP2;P2;SDS_P1;SDS_P2;PMS_P1;PMS_P2;Temp;Humidity;BMP_temperature;BMP_pressure;BME280_temperature;BME280_humidity;BME280_pressure;Samples;Min_cycle;Max_cycle;Signal;HPM_P1;HPM_P2
2022/04/07 00:01:46;;;;;;;13.45;7.82;;;;;;;10.75;46.09;94538.38;5083471;28;20031;-70
2022/04/07 00:04:11;;;;;;;13.65;7.03;;;;;;;10.70;45.98;94537.34;5085518;28;20021;-71
2022/04/07 00:06:37;;;;;;;11.65;7.63;;;;;;;10.60;46.07;94540.38;5083357;28;20024;-71
2022/04/07 00:09:03;;;;;;;11.07;7.05;;;;;;;10.63;46.47;94537.31;5084049;28;20035;-71
2022/04/07 00:11:29;;;;;;;17.08;7.60;;;;;;;10.59;45.56;94531.50;5083642;28;20020;-71
2022/04/07 00:13:55;;;;;;;12.98;7.45;;;;;;;10.63;45.86;94532.78;5084878;28;20084;-71
2022/04/07 00:16:20;;;;;;;16.33;7.05;;;;;;;10.68;46.75;94524.13;5084230;28;20028;-73
2022/04/07 00:18:46;;;;;;;12.27;7.45;;;;;;;10.72;46.17;94522.69;5084438;28;20070;-69
2022/04/07 00:21:12;;;;;;;12.27;6.68;;;;;;;10.66;46.30;94515.44;5084573;28;20108;-69
2022/04/07 00:23:41;;;;;;;13.55;6.93;;;;;;;10.55;46.82;94511.50;5084102;28;20414;-69
2022/04/07 00:26:06;;;;;;;19.33;7.55;;;;;;;10.59;45.89;94509.25;5084927;28;20107;-70
2022/04/07 00:28:32;;;;;;;12.60;6.70;;;;;;;10.59;46.71;94498.53;5082265;28;20027;-69
2022/04/07 00:30:58;;;;;;;13.50;7.03;;;;;;;10.59;46.69;94514.59;5084700;28;20095;-69
2022/04/07 00:33:23;;;;;;;12.15;6.53;;;;;;;10.50;46.79;94495.16;5084070;28;20103;-70
2022/04/07 00:35:48;;;;;;;11.95;6.95;;;;;;;10.43;46.51;94494.28;5084154;28;20487;-69
2022/04/07 00:38:14;;;;;;;12.77;7.45;;;;;;;10.39;47.26;94499.22;5068728;28;20024;-69
2022/04/07 00:40:39;;;;;;;11.20;7.22;;;;;;;10.42;46.96;94487.25;5087743;28;20020;-69
2022/04/07 00:43:05;;;;;;;12.55;6.75;;;;;;;10.43;47.07;94494.28;5088200;28;20024;-69
2022/04/07 00:45:30;;;;;;;10.20;6.57;;;;;;;10.46;47.04;94486.69;5087346;28;20028;-69
2022/04/07 00:47:58;;;;;;;14.18;7.45;;;;;;;10.49;46.25;94497.00;5088416;28;20028;-69
2022/04/07 00:50:23;;;;;;;15.00;8.15;;;;;;;10.56;46.45;94501.59;5085801;28;20491;-69
2022/04/07 00:52:51;;;;;;;18.08;9.02;;;;;;;10.55;46.25;94499.94;5087686;28;20484;-70
2022/04/07 00:55:16;;;;;;;14.82;8.63;;;;;;;10.52;46.16;94485.06;5086002;28;20103;-69
2022/04/07 00:57:42;;;;;;;16.25;9.70;;;;;;;10.48;46.37;94476.59;5085956;28;20394;-70
2022/04/07 01:00:08;;;;;;;14.45;8.75;;;;;;;10.46;46.53;94461.72;5086309;28;20016;-68
2022/04/07 01:02:36;;;;;;;15.20;7.78;;;;;;;10.35;47.19;94463.13;5086872;28;20085;-70
2022/04/07 01:05:04;;;;;;;15.07;8.18;;;;;;;10.22;46.99;94462.03;5086516;28;20032;-70
2022/04/07 01:07:32;;;;;;;10.82;6.95;;;;;;;10.14;47.37;94459.50;5087189;28;20474;-70
2022/04/07 01:09:59;;;;;;;9.52;6.82;;;;;;;10.19;47.73;94461.63;5087483;28;20076;-70
2022/04/07 01:12:24;;;;;;;15.38;8.57;;;;;;;10.19;47.24;94467.78;5085554;28;20043;-69
2022/04/07 01:15:03;;;;;;;15.40;8.48;;;;;;;10.01;47.97;94465.63;5087240;28;20032;-71
2022/04/07 01:17:28;;;;;;;12.73;7.80;;;;;;;10.00;48.08;94461.28;5069260;28;20493;-69
2022/04/07 01:19:54;;;;;;;15.15;8.85;;;;;;;9.98;48.33;94449.94;5086703;28;20016;-69
2022/04/07 01:22:20;;;;;;;13.80;8.15;;;;;;;9.95;48.71;94432.41;5087697;28;20036;-69
2022/04/07 01:24:47;;;;;;;13.13;7.80;;;;;;;9.95;48.75;94428.91;5086357;28;20024;-70
2022/04/07 01:27:12;;;;;;;11.38;7.53;;;;;;;9.93;47.75;94429.09;5087605;28;20044;-69
2022/04/07 01:29:38;;;;;;;13.32;6.68;;;;;;;9.91;47.78;94428.50;5085307;28;20024;-69
2022/04/07 01:32:32;;;;;;;14.10;7.53;;;;;;;9.88;48.18;94424.34;5086941;28;20028;-69
2022/04/07 01:34:58;;;;;;;11.55;7.25;;;;;;;9.90;48.36;94418.78;5085877;28;20494;-69
2022/04/07 01:37:23;;;;;;;18.45;7.25;;;;;;;9.99;47.82;94409.59;5085212;28;20031;-69
2022/04/07 01:39:48;;;;;;;15.95;7.50;;;;;;;9.99;47.95;94411.44;5087392;28;20028;-70
2022/04/07 01:42:14;;;;;;;13.93;7.80;;;;;;;9.96;47.88;94396.56;5086225;28;20024;-70
2022/04/07 01:44:42;;;;;;;11.07;7.03;;;;;;;9.89;48.64;94387.69;5086036;28;20051;-70
2022/04/07 01:47:09;;;;;;;11.40;7.47;;;;;;;9.87;49.15;94384.38;5067881;28;20496;-71
2022/04/07 01:49:35;;;;;;;11.00;7.07;;;;;;;9.76;49.22;94378.56;5068599;28;20118;-72
2022/04/07 01:52:02;;;;;;;10.90;7.45;;;;;;;9.75;49.22;94366.19;5085227;28;20024;-70
2022/04/07 01:54:28;;;;;;;10.40;7.55;;;;;;;9.75;50.03;94360.00;5085011;28;20020;-71
2022/04/07 01:56:53;;;;;;;9.60;6.97;;;;;;;9.75;49.76;94366.19;5086996;28;20371;-71
2022/04/07 01:59:19;;;;;;;14.70;7.68;;;;;;;9.66;48.87;94372.72;5084640;28;20051;-70
2022/04/07 02:01:44;;;;;;;13.13;7.30;;;;;;;9.62;49.37;94366.94;5068644;28;20024;-70
2022/04/07 02:04:09;;;;;;;10.05;6.22;;;;;;;9.77;48.69;94361.47;5085626;28;20450;-70
2022/04/07 02:06:35;;;;;;;11.88;6.45;;;;;;;9.74;48.92;94361.03;5086868;28;20031;-71
2022/04/07 02:09:02;;;;;;;9.02;6.40;;;;;;;9.74;49.12;94351.16;5085790;28;20028;-70
2022/04/07 02:11:28;;;;;;;11.13;7.05;;;;;;;9.77;49.04;94349.91;5086224;28;20020;-71
2022/04/07 02:13:53;;;;;;;12.00;6.88;;;;;;;9.76;48.80;94351.78;5068146;28;20097;-70
2022/04/07 02:16:20;;;;;;;9.80;6.63;;;;;;;9.77;48.99;94341.88;5085787;28;20020;-71
2022/04/07 02:18:46;;;;;;;15.57;7.53;;;;;;;9.78;48.75;94332.84;5085151;28;20120;-68
2022/04/07 02:21:11;;;;;;;9.80;7.03;;;;;;;9.66;49.48;94345.94;5085533;28;20017;-71
2022/04/07 02:23:42;;;;;;;16.23;7.75;;;;;;;9.67;49.49;94336.91;5086273;28;20028;-70
2022/04/07 02:26:19;;;;;;;11.55;6.63;;;;;;;9.58;50.39;94335.41;5085426;28;20067;-69
2022/04/07 02:28:44;;;;;;;12.13;7.13;;;;;;;9.54;49.78;94332.31;5086120;28;20020;-71
2022/04/07 02:31:11;;;;;;;9.73;7.35;;;;;;;9.60;48.74;94328.84;5084394;28;20089;-70
2022/04/07 02:33:36;;;;;;;10.40;7.22;;;;;;;9.53;49.55;94319.94;5085352;28;20024;-69
2022/04/07 02:36:03;;;;;;;11.32;7.28;;;;;;;9.47;49.25;94316.22;5084974;28;20086;-71
2022/04/07 02:38:28;;;;;;;16.35;7.70;;;;;;;9.36;50.84;94316.78;5083994;28;20026;-70
2022/04/07 02:40:54;;;;;;;12.48;7.47;;;;;;;9.28;50.91;94318.56;5086158;28;20028;-69
2022/04/07 02:43:19;;;;;;;11.32;7.47;;;;;;;9.15;51.36;94297.09;5084943;28;20039;-69
2022/04/07 02:45:44;;;;;;;11.85;7.18;;;;;;;9.11;51.58;94293.13;5085673;28;20028;-70
2022/04/07 02:48:10;;;;;;;19.60;8.48;;;;;;;9.19;51.17;94287.63;5085284;28;20085;-69
2022/04/07 02:50:35;;;;;;;21.60;10.85;;;;;;;9.24;51.12;94289.72;5085416;28;20506;-69
2022/04/07 02:53:01;;;;;;;23.70;11.70;;;;;;;9.28;50.61;94291.81;5085836;28;20097;-69
2022/04/07 02:55:27;;;;;;;16.90;8.60;;;;;;;9.11;52.00;94280.59;5083521;28;20378;-69
2022/04/07 02:57:53;;;;;;;16.95;7.75;;;;;;;9.18;51.18;94269.94;5084436;28;20466;-71
2022/04/07 03:00:18;;;;;;;13.23;7.43;;;;;;;9.23;51.63;94269.34;5083862;28;20039;-69
2022/04/07 03:02:44;;;;;;;14.52;7.47;;;;;;;9.21;51.97;94264.19;5085212;28;20218;-72
2022/04/07 03:05:09;;;;;;;13.15;8.02;;;;;;;9.20;51.91;94262.56;5082034;28;20028;-70
2022/04/07 03:07:36;;;;;;;16.67;8.68;;;;;;;9.24;51.43;94269.16;5083326;28;20020;-68
2022/04/07 03:10:01;;;;;;;16.58;8.40;;;;;;;9.24;51.58;94271.84;5080213;28;20411;-70
2022/04/07 03:12:26;;;;;;;17.33;8.05;;;;;;;9.27;51.60;94276.78;5081808;28;20872;-71
2022/04/07 03:14:52;;;;;;;13.60;7.57;;;;;;;9.25;51.34;94268.13;5089540;28;20031;-70
2022/04/07 03:17:17;;;;;;;14.80;7.28;;;;;;;9.26;52.44;94252.91;5089154;28;20019;-70
2022/04/07 03:19:43;;;;;;;13.27;6.93;;;;;;;9.22;52.53;94244.44;5081439;28;20495;-72
2022/04/07 03:22:08;;;;;;;10.02;6.18;;;;;;;9.33;52.35;94231.53;5089478;28;20390;-70
2022/04/07 03:24:34;;;;;;;28.00;18.48;;;;;;;9.22;52.59;94239.09;5087432;28;20028;-72
2022/04/07 03:26:59;;;;;;;11.95;8.00;;;;;;;9.10;53.17;94235.31;5086618;28;20043;-69
2022/04/07 03:29:26;;;;;;;18.92;8.90;;;;;;;9.06;53.26;94242.09;5078853;28;20027;-69
2022/04/07 03:31:51;;;;;;;14.70;8.75;;;;;;;9.05;53.83;94238.59;5098885;28;20036;-68
2022/04/07 03:34:17;;;;;;;15.10;9.50;;;;;;;9.17;53.68;94236.22;5090450;28;20113;-70
2022/04/07 03:36:42;;;;;;;12.57;8.40;;;;;;;9.14;54.00;94247.31;5104063;28;20024;-71
2022/04/07 03:39:09;;;;;;;8.38;6.38;;;;;;;9.21;53.84;94232.09;5082506;28;20682;-69
2022/04/07 03:41:34;;;;;;;9.88;6.07;;;;;;;9.25;53.41;94217.28;5103481;28;20815;-69
2022/04/07 03:44:03;;;;;;;8.52;5.53;;;;;;;9.26;53.86;94218.97;5100797;28;20027;-71
2022/04/07 03:46:29;;;;;;;8.70;5.95;;;;;;;9.31;53.37;94210.34;5082143;28;20036;-70
2022/04/07 03:48:54;;;;;;;9.15;5.50;;;;;;;9.37;53.42;94201.50;5080278;28;20031;-71
2022/04/07 03:51:19;;;;;;;9.07;5.15;;;;;;;9.35;54.02;94176.78;5081458;28;20035;-69
2022/04/07 03:53:45;;;;;;;7.10;5.85;;;;;;;9.29;54.44;94172.25;5082418;28;20241;-69
2022/04/07 03:56:10;;;;;;;11.43;6.45;;;;;;;9.28;54.10;94186.66;5082445;28;20035;-69
2022/04/07 03:58:37;;;;;;;10.02;5.90;;;;;;;9.25;54.90;94195.06;5081304;28;20085;-69
2022/04/07 04:01:02;;;;;;;9.35;5.60;;;;;;;9.18;55.31;94179.00;5095292;28;20028;-68
2022/04/07 04:03:28;;;;;;;8.73;6.00;;;;;;;9.31;54.18;94172.03;5082120;28;20016;-69
2022/04/07 04:05:53;;;;;;;6.82;5.38;;;;;;;9.25;54.47;94185.19;5082770;28;20033;-69
2022/04/07 04:08:18;;;;;;;7.38;5.05;;;;;;;9.34;54.67;94196.56;5079791;28;20051;-68
2022/04/07 04:10:44;;;;;;;7.47;5.38;;;;;;;9.25;54.69;94198.56;5083103;28;20438;-69
2022/04/07 04:13:09;;;;;;;9.23;5.40;;;;;;;9.18;55.24;94204.91;5083592;28;20024;-72
2022/04/07 04:15:35;;;;;;;6.85;4.95;;;;;;;9.12;55.36;94206.53;5085139;28;20118;-68
2022/04/07 04:18:00;;;;;;;10.15;6.25;;;;;;;9.15;55.07;94201.63;5088555;28;20020;-72
2022/04/07 04:20:26;;;;;;;11.13;6.05;;;;;;;9.16;54.70;94213.13;5082410;28;20040;-69
2022/04/07 04:22:51;;;;;;;10.60;6.68;;;;;;;9.15;53.92;94222.19;5085444;28;20032;-69
2022/04/07 04:25:17;;;;;;;15.85;6.10;;;;;;;9.11;54.55;94212.91;5083576;28;20032;-68
2022/04/07 04:27:42;;;;;;;10.40;5.70;;;;;;;9.09;54.51;94214.97;5085882;28;20028;-69
2022/04/07 04:30:08;;;;;;;8.70;6.10;;;;;;;9.09;54.87;94212.28;5083803;28;20024;-69
2022/04/07 04:32:34;;;;;;;9.32;5.43;;;;;;;9.12;55.08;94199.34;5083522;28;20487;-69
2022/04/07 04:34:59;;;;;;;10.27;5.60;;;;;;;9.17;55.17;94208.63;5086379;28;20027;-69
2022/04/07 04:37:26;;;;;;;11.82;6.78;;;;;;;9.19;55.89;94212.72;5105588;28;20023;-70
2022/04/07 04:39:53;;;;;;;15.25;7.70;;;;;;;9.24;55.17;94201.44;5103259;28;20034;-71
2022/04/07 04:42:19;;;;;;;16.92;7.22;;;;;;;9.37;54.56;94187.28;5103465;28;20034;-71
2022/04/07 04:44:45;;;;;;;14.38;5.88;;;;;;;9.37;54.19;94182.78;5101048;28;20019;-71
2022/04/07 04:47:11;;;;;;;9.02;5.90;;;;;;;9.38;53.86;94203.13;5105309;28;20035;-73
2022/04/07 04:49:40;;;;;;;17.05;8.55;;;;;;;9.29;55.05;94209.69;5102935;28;20043;-69
2022/04/07 04:52:06;;;;;;;15.45;9.15;;;;;;;9.29;54.54;94209.69;5106631;28;20034;-69
2022/04/07 04:54:32;;;;;;;19.05;8.13;;;;;;;9.32;54.44;94203.94;5108110;28;20031;-69
2022/04/07 04:56:58;;;;;;;13.55;7.90;;;;;;;9.28;54.78;94200.84;5107697;27;20022;-69
2022/04/07 04:59:23;;;;;;;13.30;6.60;;;;;;;9.29;55.03;94196.31;5108181;28;20028;-70
2022/04/07 05:01:48;;;;;;;12.88;6.85;;;;;;;9.36;55.76;94207.06;5105577;28;20054;-70
2022/04/07 05:04:14;;;;;;;10.77;7.22;;;;;;;9.39;54.86;94209.34;5107659;28;20478;-68
2022/04/07 05:06:39;;;;;;;10.55;7.53;;;;;;;9.46;54.62;94196.78;5107590;28;20046;-69
2022/04/07 05:09:05;;;;;;;11.70;7.95;;;;;;;9.37;55.48;94189.97;5107823;28;20024;-69
2022/04/07 05:11:30;;;;;;;13.57;7.53;;;;;;;9.39;55.73;94185.25;5106844;28;20039;-70
2022/04/07 05:13:56;;;;;;;11.43;7.65;;;;;;;9.38;55.67;94180.94;5106991;28;20024;-70
2022/04/07 05:16:21;;;;;;;14.00;8.25;;;;;;;9.41;55.87;94172.50;5108072;28;20136;-69
2022/04/07 05:18:48;;;;;;;15.52;7.82;;;;;;;9.45;56.58;94170.22;5106918;28;20020;-70
2022/04/07 05:21:14;;;;;;;9.25;6.47;;;;;;;9.56;55.62;94180.34;5107604;28;20026;-69
2022/04/07 05:23:40;;;;;;;10.95;6.57;;;;;;;9.67;56.14;94183.47;5106270;28;20024;-70
2022/04/07 05:26:05;;;;;;;9.30;5.38;;;;;;;9.75;56.02;94175.25;5107322;28;20067;-70
2022/04/07 05:28:31;;;;;;;8.02;5.90;;;;;;;9.90;55.69;94180.41;5108057;28;20076;-68
2022/04/07 05:30:56;;;;;;;8.63;6.18;;;;;;;9.99;55.77;94173.88;5106785;28;20020;-69
2022/04/07 05:33:22;;;;;;;9.70;5.72;;;;;;;10.11;56.50;94171.38;5107980;28;20028;-69
2022/04/07 05:35:47;;;;;;;10.93;6.60;;;;;;;10.13;55.55;94169.34;5106285;28;20437;-72
2022/04/07 05:38:13;;;;;;;12.05;6.53;;;;;;;10.20;54.46;94174.69;5106495;28;20501;-69
2022/04/07 05:40:38;;;;;;;10.57;6.15;;;;;;;10.30;54.46;94178.81;5107060;28;20020;-70
2022/04/07 05:43:04;;;;;;;17.58;5.50;;;;;;;10.39;54.73;94164.19;5106959;28;20084;-70
2022/04/07 05:45:30;;;;;;;7.00;5.32;;;;;;;10.43;53.03;94146.63;5107235;28;20023;-69
2022/04/07 05:47:55;;;;;;;8.30;5.57;;;;;;;10.51;52.18;94154.50;5106507;28;20016;-69
2022/04/07 05:50:21;;;;;;;10.73;5.78;;;;;;;10.54;52.00;94149.75;5107381;28;20031;-71
2022/04/07 05:52:48;;;;;;;14.88;7.80;;;;;;;10.67;51.59;94146.22;5106106;28;20034;-70
2022/04/07 05:55:13;;;;;;;13.70;6.75;;;;;;;10.66;51.73;94140.03;5106030;28;20077;-70
2022/04/07 05:57:38;;;;;;;15.43;7.13;;;;;;;10.66;51.09;94137.34;5106337;28;20024;-69
2022/04/07 06:00:08;;;;;;;16.02;7.95;;;;;;;10.72;51.08;94131.16;5106634;28;20020;-68
2022/04/07 06:02:33;;;;;;;15.45;6.97;;;;;;;10.80;50.94;94129.28;5105138;28;20047;-68
2022/04/07 06:04:58;;;;;;;12.48;6.70;;;;;;;10.81;51.70;94117.53;5106450;28;20402;-69
2022/04/07 06:07:24;;;;;;;12.25;5.70;;;;;;;10.93;50.25;94117.69;5107029;28;20027;-69
2022/04/07 06:09:49;;;;;;;10.43;6.05;;;;;;;10.97;50.25;94119.75;5106579;28;20023;-69
2022/04/07 06:12:15;;;;;;;12.45;6.32;;;;;;;11.01;50.22;94130.84;5106747;28;20058;-68
2022/04/07 06:14:40;;;;;;;10.30;6.30;;;;;;;11.06;49.74;94116.84;5105801;28;20030;-70
2022/04/07 06:17:05;;;;;;;10.25;5.68;;;;;;;11.08;50.36;94123.63;5106540;28;20027;-70
2022/04/07 06:19:31;;;;;;;8.32;5.60;;;;;;;11.07;50.60;94118.47;5106025;28;20016;-69
2022/04/07 06:21:56;;;;;;;11.38;5.68;;;;;;;11.12;50.41;94130.19;5104972;28;20055;-69
2022/04/07 06:24:22;;;;;;;7.65;5.35;;;;;;;11.06;50.44;94123.00;5106243;28;20406;-70
2022/04/07 06:26:49;;;;;;;7.75;4.63;;;;;;;11.10;49.68;94108.13;5106115;28;20049;-70
2022/04/07 06:29:15;;;;;;;12.38;5.65;;;;;;;11.12;49.73;94108.72;5106613;27;20031;-70
2022/04/07 06:31:40;;;;;;;8.43;4.75;;;;;;;11.19;49.38;94115.91;5105663;28;20024;-69
2022/04/07 06:34:05;;;;;;;10.90;5.40;;;;;;;11.20;49.38;94113.06;5106381;27;20024;-69
2022/04/07 06:36:31;;;;;;;11.27;5.50;;;;;;;11.31;49.31;94113.41;5105532;28;20028;-69
2022/04/07 06:38:56;;;;;;;9.15;5.43;;;;;;;11.35;49.34;94112.75;5106268;28;20027;-69
2022/04/07 06:41:22;;;;;;;11.07;5.32;;;;;;;11.44;48.97;94117.88;5105452;28;20024;-69
2022/04/07 06:43:47;;;;;;;8.65;5.55;;;;;;;11.48;48.48;94103.81;5105824;28;20042;-69
2022/04/07 06:46:12;;;;;;;11.02;5.53;;;;;;;11.59;48.06;94109.53;5105892;28;20028;-69
2022/04/07 06:48:38;;;;;;;12.18;5.93;;;;;;;11.70;47.98;94116.88;5105726;28;20031;-70
2022/04/07 06:51:03;;;;;;;15.88;6.03;;;;;;;11.75;47.45;94108.22;5106109;28;20028;-69
2022/04/07 06:53:29;;;;;;;12.02;6.22;;;;;;;11.76;46.74;94107.16;5104922;28;20383;-69
2022/04/07 06:55:54;;;;;;;10.27;5.60;;;;;;;11.90;46.86;94109.75;5106240;28;20423;-71
2022/04/07 06:58:20;;;;;;;10.80;6.13;;;;;;;11.99;46.68;94114.63;5104946;28;20035;-70
2022/04/07 07:00:46;;;;;;;9.65;5.63;;;;;;;12.02;46.28;94115.22;5105653;28;20016;-69
2022/04/07 07:03:13;;;;;;;12.15;6.75;;;;;;;11.95;46.40;94097.31;5105399;28;20031;-70
2022/04/07 07:05:39;;;;;;;12.18;5.88;;;;;;;11.89;46.00;94092.81;5105532;28;20570;-69
2022/04/07 07:08:12;;;;;;;9.15;5.55;;;;;;;11.92;46.00;94105.81;5105780;28;20024;-68
2022/04/07 07:10:37;;;;;;;10.63;6.00;;;;;;;11.95;46.06;94113.44;5103961;28;20054;-69
2022/04/07 07:13:03;;;;;;;8.75;4.90;;;;;;;11.93;45.65;94107.44;5105881;28;20031;-69
2022/04/07 07:15:28;;;;;;;10.90;5.65;;;;;;;11.89;46.12;94098.19;5104608;28;20034;-70
2022/04/07 07:17:54;;;;;;;8.88;4.95;;;;;;;11.77;45.82;94100.72;5105689;28;20024;-69
2022/04/07 07:20:19;;;;;;;7.35;4.85;;;;;;;11.80;45.41;94094.13;5105123;28;20023;-70
2022/04/07 07:22:44;;;;;;;12.68;5.60;;;;;;;11.87;45.67;94092.19;5105308;28;20398;-69
2022/04/07 07:25:10;;;;;;;9.35;5.70;;;;;;;11.83;45.34;94094.50;5105159;28;20035;-72
2022/04/07 07:27:45;;;;;;;10.57;5.70;;;;;;;11.92;45.19;94092.38;5104859;28;20136;-70
2022/04/07 07:30:12;;;;;;;9.55;6.07;;;;;;;11.93;46.70;94099.38;5105802;28;20481;-69
2022/04/07 07:32:38;;;;;;;23.20;6.97;;;;;;;11.93;46.39;94085.94;5103432;28;20023;-70
2022/04/07 07:35:04;;;;;;;16.52;6.82;;;;;;;11.83;46.63;94072.19;5105620;28;20505;-69
2022/04/07 07:37:30;;;;;;;12.50;6.50;;;;;;;11.97;45.58;94084.47;5104624;28;20020;-70
2022/04/07 07:39:55;;;;;;;11.05;5.20;;;;;;;11.90;45.35;94075.63;5105283;28;20389;-69
2022/04/07 07:42:21;;;;;;;9.60;6.05;;;;;;;11.98;45.49;94070.00;5105165;28;20016;-71
2022/04/07 07:44:46;;;;;;;9.63;5.30;;;;;;;11.91;46.48;94063.03;5105019;28;20027;-70
2022/04/07 07:47:12;;;;;;;8.50;4.70;;;;;;;11.95;45.67;94062.38;5108899;28;20020;-70
2022/04/07 07:49:37;;;;;;;7.55;5.00;;;;;;;11.98;45.35;94056.56;5108518;28;20028;-69
2022/04/07 07:52:03;;;;;;;9.00;4.80;;;;;;;11.96;45.36;94058.63;5109562;28;20020;-69
2022/04/07 07:54:29;;;;;;;7.15;4.60;;;;;;;12.08;46.03;94048.03;5108419;28;20536;-68
2022/04/07 07:56:54;;;;;;;7.15;5.03;;;;;;;12.24;45.96;94046.66;5109192;28;20023;-70
2022/04/07 07:59:20;;;;;;;7.72;5.00;;;;;;;12.26;44.83;94032.16;5108540;28;20042;-69
2022/04/07 08:01:46;;;;;;;8.73;4.88;;;;;;;12.27;45.27;94037.31;5109259;28;20023;-69
2022/04/07 08:04:12;;;;;;;8.48;5.28;;;;;;;12.35;45.64;94023.59;5109686;28;20031;-69
2022/04/07 08:06:39;;;;;;;5.63;4.53;;;;;;;12.45;44.44;94030.31;5108432;28;20448;-69
2022/04/07 08:09:04;;;;;;;8.27;5.18;;;;;;;12.46;44.70;94026.59;5109219;28;20032;-70
2022/04/07 08:11:30;;;;;;;8.75;5.05;;;;;;;12.46;44.29;94019.31;5108104;28;20550;-69
2022/04/07 08:13:55;;;;;;;8.82;4.20;;;;;;;12.43;44.31;94014.38;5109136;28;20489;-69
2022/04/07 08:16:21;;;;;;;7.95;4.65;;;;;;;12.44;44.52;93999.09;5108517;28;20027;-70
2022/04/07 08:18:46;;;;;;;8.52;4.47;;;;;;;12.41;44.23;94010.28;5108574;28;20483;-70
2022/04/07 08:21:12;;;;;;;7.93;4.95;;;;;;;12.38;44.87;94008.84;5108862;28;20463;-69
2022/04/07 08:23:37;;;;;;;9.18;4.82;;;;;;;12.29;45.18;94005.66;5108081;28;20104;-70
2022/04/07 08:26:02;;;;;;;9.98;4.22;;;;;;;12.39;44.63;94007.84;5108890;28;20097;-71
2022/04/07 08:28:28;;;;;;;8.30;4.53;;;;;;;12.63;44.09;94002.59;5107840;28;20028;-70
2022/04/07 08:30:53;;;;;;;6.90;4.72;;;;;;;12.86;43.28;94001.88;5108943;28;20031;-72
2022/04/07 08:33:19;;;;;;;10.60;5.20;;;;;;;13.27;43.59;93985.19;5108169;28;20024;-70
2022/04/07 08:35:44;;;;;;;9.80;5.18;;;;;;;13.54;42.85;93997.47;5108162;28;20460;-70
2022/04/07 08:38:14;;;;;;;6.13;4.75;;;;;;;13.68;42.84;93988.13;5108015;28;20020;-69
2022/04/07 08:40:39;;;;;;;11.13;5.10;;;;;;;13.90;42.42;93992.94;5108228;28;20505;-70
2022/04/07 08:43:05;;;;;;;7.53;4.50;;;;;;;14.14;42.40;93984.88;5090146;28;20028;-71
2022/04/07 08:45:30;;;;;;;7.95;4.55;;;;;;;13.98;41.81;93990.97;5107853;28;20221;-70
2022/04/07 08:47:57;;;;;;;11.25;5.05;;;;;;;13.96;42.03;93981.22;5090594;28;20020;-69
2022/04/07 08:50:22;;;;;;;8.02;4.47;;;;;;;14.26;41.45;93974.09;5107454;28;20053;-70
2022/04/07 08:52:48;;;;;;;8.77;4.93;;;;;;;13.96;41.69;93977.75;5106711;28;20028;-71
2022/04/07 08:55:14;;;;;;;8.18;5.07;;;;;;;13.91;41.98;93974.91;5107642;28;20030;-69
2022/04/07 08:57:39;;;;;;;6.75;4.50;;;;;;;13.80;41.10;93974.66;5106350;28;20055;-69
2022/04/07 09:00:06;;;;;;;8.32;4.40;;;;;;;13.79;41.12;93974.91;5106687;28;20020;-71
2022/04/07 09:02:32;;;;;;;8.88;4.50;;;;;;;13.69;41.49;93970.91;5107652;28;20054;-70
2022/04/07 09:05:00;;;;;;;13.57;5.05;;;;;;;13.63;42.36;93966.47;5108152;28;20027;-68
2022/04/07 09:07:30;;;;;;;9.30;4.68;;;;;;;13.54;42.28;93979.44;5105782;28;20111;-69
2022/04/07 09:10:00;;;;;;;6.97;5.00;;;;;;;13.46;43.91;93991.34;5107688;28;20114;-70
2022/04/07 09:12:25;;;;;;;9.23;5.20;;;;;;;13.40;43.49;93991.44;5107499;28;20031;-70
2022/04/07 09:14:55;;;;;;;6.85;4.88;;;;;;;13.33;43.32;94002.31;5107466;28;20028;-70
2022/04/07 09:17:21;;;;;;;8.43;4.85;;;;;;;13.23;43.16;94017.13;5106426;28;20551;-70
2022/04/07 09:19:49;;;;;;;10.80;4.72;;;;;;;13.08;43.79;94016.72;5107133;28;20032;-70
2022/04/07 09:22:14;;;;;;;8.98;5.07;;;;;;;12.99;43.76;94016.25;5108010;28;20077;-73
2022/04/07 09:24:40;;;;;;;9.85;5.30;;;;;;;12.95;43.85;94010.47;5106915;28;20027;-71
2022/04/07 09:27:10;;;;;;;8.20;4.63;;;;;;;12.89;43.85;94008.69;5107392;28;20124;-71
2022/04/07 09:29:44;;;;;;;11.50;5.00;;;;;;;12.73;44.54;94010.94;5107014;28;20023;-71
2022/04/07 09:32:23;;;;;;;7.75;5.13;;;;;;;12.71;45.41;94006.84;5107376;28;20119;-70
2022/04/07 09:34:56;;;;;;;8.60;5.57;;;;;;;12.56;46.20;94016.13;5107405;28;20046;-70
2022/04/07 09:37:22;;;;;;;8.93;5.45;;;;;;;12.56;47.07;94009.91;5106981;28;20501;-69
2022/04/07 09:39:50;;;;;;;8.40;5.55;;;;;;;12.45;46.86;94015.00;5107778;28;20027;-71
2022/04/07 09:42:23;;;;;;;8.73;5.90;;;;;;;12.36;47.17;94013.66;5104879;28;20032;-70
2022/04/07 09:44:51;;;;;;;13.48;6.50;;;;;;;12.34;48.26;94013.06;5107578;28;20137;-70
2022/04/07 09:47:16;;;;;;;9.35;5.88;;;;;;;12.39;47.36;94015.06;5106591;28;20052;-70
2022/04/07 09:49:42;;;;;;;7.43;5.15;;;;;;;12.35;47.71;94017.38;5106835;28;20043;-70
2022/04/07 09:52:08;;;;;;;9.07;5.35;;;;;;;12.37;48.15;94023.34;5088964;28;20027;-70
2022/04/07 09:54:33;;;;;;;10.05;5.68;;;;;;;12.34;49.92;94031.88;5106607;28;20031;-70
2022/04/07 09:56:59;;;;;;;9.07;5.80;;;;;;;12.32;49.58;94042.84;5088967;28;20427;-71
2022/04/07 09:59:24;;;;;;;7.80;5.95;;;;;;;12.26;50.23;94049.13;5105961;28;20505;-71
2022/04/07 10:01:51;;;;;;;9.25;6.35;;;;;;;12.29;50.65;94054.03;5088835;28;20109;-69
2022/04/07 10:04:16;;;;;;;8.15;6.05;;;;;;;12.34;51.09;94051.53;5106110;28;20498;-70
2022/04/07 10:06:42;;;;;;;9.55;6.50;;;;;;;12.33;51.24;94059.81;5105680;28;20028;-69
2022/04/07 10:09:08;;;;;;;10.00;5.95;;;;;;;12.29;52.62;94055.91;5104716;28;20530;-70
2022/04/07 10:11:34;;;;;;;11.52;6.40;;;;;;;12.09;55.19;94055.03;5106695;27;20026;-70
2022/04/07 10:14:00;;;;;;;13.75;6.95;;;;;;;11.96;58.07;94047.09;5106848;28;20020;-69
2022/04/07 10:16:29;;;;;;;15.57;7.20;;;;;;;11.82;59.33;94049.88;5106173;28;20027;-70
2022/04/07 10:19:00;;;;;;;13.13;7.65;;;;;;;11.69;61.06;94045.41;5105511;28;20157;-70
2022/04/07 10:21:39;;;;;;;20.58;9.23;;;;;;;11.60;62.44;94042.19;5104644;28;20039;-71
2022/04/07 10:24:15;;;;;;;12.43;7.55;;;;;;;11.52;63.37;94039.78;5105932;28;20190;-69
2022/04/07 10:26:44;;;;;;;11.02;7.30;;;;;;;11.54;62.88;94043.06;5106320;28;20051;-70
2022/04/07 10:29:18;;;;;;;10.40;7.53;;;;;;;11.54;63.40;94032.31;5087499;28;20495;-69
2022/04/07 10:32:12;;;;;;;15.32;7.53;;;;;;;11.49;63.22;94027.59;5088575;28;20035;-70
2022/04/07 10:34:53;;;;;;;10.75;7.20;;;;;;;11.50;63.25;94031.09;5105738;28;20110;-70
2022/04/07 10:37:42;;;;;;;9.48;7.70;;;;;;;11.48;63.23;94028.63;5105836;28;20116;-69
2022/04/07 10:40:48;;;;;;;10.23;7.22;;;;;;;11.46;62.69;94027.22;5106398;27;20140;-69
2022/04/07 10:43:14;;;;;;;12.90;6.95;;;;;;;11.45;62.66;94018.34;5105364;28;20640;-70
2022/04/07 10:46:01;;;;;;;13.77;7.03;;;;;;;11.48;63.52;94014.38;5105963;28;20046;-70
2022/04/07 10:48:29;;;;;;;12.90;6.82;;;;;;;11.53;62.71;94016.41;5106015;28;20028;-70
2022/04/07 10:51:05;;;;;;;12.40;7.10;;;;;;;11.59;61.93;94013.69;5105602;28;20062;-73
2022/04/07 10:53:38;;;;;;;10.55;6.68;;;;;;;11.57;61.04;94005.03;5106252;28;20035;-69
2022/04/07 10:56:05;;;;;;;10.88;6.05;;;;;;;11.62;61.18;94007.06;5105526;28;20103;-70
2022/04/07 10:58:47;;;;;;;14.02;6.45;;;;;;;11.61;62.97;93997.34;5105829;28;20032;-69
2022/04/07 11:01:42;;;;;;;11.32;7.43;;;;;;;11.65;63.08;94000.44;5105556;28;20047;-70
2022/04/07 11:04:20;;;;;;;8.65;6.63;;;;;;;11.73;61.70;93998.31;5069826;28;20031;-71
2022/04/07 11:07:16;;;;;;;12.88;6.53;;;;;;;11.90;61.88;93996.94;5106051;28;20035;-71
2022/04/07 11:09:58;;;;;;;8.98;5.75;;;;;;;11.95;60.37;93992.53;5105939;28;20043;-71
2022/04/07 11:12:42;;;;;;;9.93;5.70;;;;;;;12.09;59.32;93987.06;5105311;28;20058;-70
2022/04/07 11:15:15;;;;;;;9.43;4.95;;;;;;;12.11;59.25;93983.09;5106055;27;20088;-70
2022/04/07 11:17:44;;;;;;;9.80;4.85;;;;;;;12.29;58.51;93994.06;5105131;28;20081;-70
2022/04/07 11:20:22;;;;;;;8.15;5.28;;;;;;;12.38;57.80;93987.34;5105495;28;20023;-70
2022/04/07 11:23:04;;;;;;;7.15;5.38;;;;;;;12.36;58.87;93994.84;5105753;28;20039;-71
2022/04/07 11:25:40;;;;;;;14.80;6.55;;;;;;;12.43;59.39;93987.50;5104684;28;20045;-70
2022/04/07 11:28:11;;;;;;;12.85;6.10;;;;;;;12.49;58.22;94001.94;5105527;28;20048;-70
2022/04/07 11:30:38;;;;;;;7.25;5.03;;;;;;;12.49;57.21;94000.03;5104804;28;20035;-70
2022/04/07 11:35:59;;;;;;;9.55;5.25;;;;;;;12.48;58.00;93993.03;5105785;28;20034;-70